createdAt,value
2017-07-30T00:00:13.159Z,13.57
2017-07-30T00:02:39.478Z,8.70
2017-07-30T00:05:05.772Z,10.90
2017-07-30T00:07:32.072Z,14.23
2017-07-30T00:09:58.349Z,11.87
2017-07-30T00:12:24.728Z,9.53
2017-07-30T00:14:51.008Z,12.57
2017-07-30T00:17:18.052Z,15.43
2017-07-30T00:19:45.171Z,13.23
2017-07-30T00:22:11.496Z,18.50
2017-07-30T00:24:37.792Z,9.90
2017-07-30T00:27:04.106Z,11.53
2017-07-30T00:29:30.378Z,11.00
2017-07-30T00:31:56.651Z,10.33
2017-07-30T00:34:23.001Z,14.33
2017-07-30T00:36:49.320Z,14.83
2017-07-30T00:39:15.649Z,10.33
2017-07-30T00:41:41.931Z,9.40
2017-07-30T00:44:08.197Z,9.90
2017-07-30T00:46:34.492Z,11.93
2017-07-30T00:49:00.792Z,12.63
2017-07-30T00:51:27.094Z,20.93
2017-07-30T00:53:54.134Z,11.33
2017-07-30T00:56:21.180Z,11.73
2017-07-30T00:58:49.314Z,10.10
2017-07-30T01:01:15.631Z,11.77
2017-07-30T01:03:41.994Z,17.50
2017-07-30T01:06:08.291Z,9.83
2017-07-30T01:08:34.574Z,13.07
2017-07-30T01:11:01.623Z,11.33
2017-07-30T01:13:28.644Z,28.67
2017-07-30T01:15:54.970Z,15.17
2017-07-30T01:18:21.272Z,12.23
2017-07-30T01:20:47.722Z,16.83
2017-07-30T01:23:14.020Z,14.07
2017-07-30T01:25:40.300Z,12.07
2017-07-30T01:28:06.600Z,16.63
2017-07-30T01:30:32.919Z,10.60
2017-07-30T01:32:59.297Z,12.90
2017-07-30T01:35:25.635Z,8.90
2017-07-30T01:37:52.651Z,13.80
2017-07-30T01:40:19.110Z,11.70
2017-07-30T01:42:45.473Z,11.47
2017-07-30T01:45:11.771Z,8.97
2017-07-30T01:47:38.840Z,11.90
2017-07-30T01:50:05.221Z,12.63
2017-07-30T01:52:31.553Z,10.13
2017-07-30T01:54:57.873Z,17.23
2017-07-30T01:57:24.179Z,9.43
2017-07-30T01:59:50.452Z,21.40
2017-07-30T02:02:16.764Z,16.93
2017-07-30T02:04:43.066Z,12.60
2017-07-30T02:07:09.468Z,9.80
2017-07-30T02:09:35.771Z,16.47
2017-07-30T02:12:02.056Z,10.63
2017-07-30T02:14:28.351Z,10.47
2017-07-30T02:16:55.372Z,8.47
2017-07-30T02:19:21.703Z,11.10
2017-07-30T02:21:47.997Z,13.33
2017-07-30T02:24:14.318Z,15.10
2017-07-30T02:26:40.631Z,17.40
2017-07-30T02:29:07.660Z,13.57
2017-07-30T02:31:34.844Z,15.93
2017-07-30T02:34:01.239Z,11.27
2017-07-30T02:36:27.505Z,14.97
2017-07-30T02:38:53.844Z,14.53
2017-07-30T02:41:20.107Z,14.33
2017-07-30T02:43:46.418Z,21.53
2017-07-30T02:46:12.727Z,16.70
2017-07-30T02:48:39.008Z,17.73
2017-07-30T02:51:05.340Z,18.87
2017-07-30T02:53:32.372Z,18.33
2017-07-30T02:55:58.676Z,16.13
2017-07-30T02:58:24.961Z,20.57
2017-07-30T03:00:51.958Z,15.67
2017-07-30T03:03:18.251Z,16.33
2017-07-30T03:05:45.310Z,16.03
2017-07-30T03:08:11.625Z,20.50
2017-07-30T03:10:37.946Z,16.27
2017-07-30T03:13:04.983Z,17.77
2017-07-30T03:15:31.276Z,16.20
2017-07-30T03:17:57.575Z,21.37
2017-07-30T03:20:23.888Z,34.23
2017-07-30T03:22:51.097Z,14.83
2017-07-30T03:25:17.425Z,18.27
2017-07-30T03:27:43.731Z,14.30
2017-07-30T03:30:10.172Z,16.57
2017-07-30T03:32:36.472Z,19.53
2017-07-30T03:35:02.779Z,18.20
2017-07-30T03:37:29.827Z,14.53
2017-07-30T03:39:56.844Z,12.60
2017-07-30T03:42:23.173Z,18.00
2017-07-30T03:44:49.483Z,22.43
2017-07-30T03:47:15.764Z,19.07
2017-07-30T03:49:42.823Z,18.43
2017-07-30T03:52:09.835Z,16.07
2017-07-30T03:54:36.136Z,14.60
2017-07-30T03:57:02.411Z,14.57
2017-07-30T03:59:29.495Z,21.23
2017-07-30T04:01:55.803Z,16.10
2017-07-30T04:04:22.939Z,13.00
2017-07-30T04:06:49.983Z,15.90
2017-07-30T04:09:16.261Z,11.50
2017-07-30T04:11:42.575Z,20.17
2017-07-30T04:14:08.940Z,22.13
2017-07-30T04:16:35.261Z,11.40
2017-07-30T04:19:01.636Z,17.30
2017-07-30T04:21:27.916Z,13.33
2017-07-30T04:23:54.199Z,15.77
2017-07-30T04:26:21.239Z,14.13
2017-07-30T04:28:48.298Z,13.10
2017-07-30T04:31:15.336Z,12.20
2017-07-30T04:33:42.384Z,19.47
2017-07-30T04:36:08.663Z,13.83
2017-07-30T04:38:34.951Z,11.13
2017-07-30T04:41:01.998Z,16.17
2017-07-30T04:43:29.019Z,12.63
2017-07-30T04:45:55.292Z,19.43
2017-07-30T04:48:21.595Z,11.70
2017-07-30T04:50:47.885Z,15.77
2017-07-30T04:53:14.203Z,9.90
2017-07-30T04:55:40.494Z,11.23
2017-07-30T04:58:07.583Z,11.93
2017-07-30T05:00:33.940Z,11.43
2017-07-30T05:03:00.220Z,7.30
2017-07-30T05:05:26.511Z,9.73
2017-07-30T05:07:52.792Z,11.77
2017-07-30T05:10:19.095Z,7.20
2017-07-30T05:12:46.104Z,7.30
2017-07-30T05:15:12.357Z,13.60
2017-07-30T05:17:38.646Z,6.87
2017-07-30T05:20:04.967Z,8.97
2017-07-30T05:22:31.288Z,5.70
2017-07-30T05:24:57.620Z,6.20
2017-07-30T05:27:23.940Z,14.03
2017-07-30T05:29:50.268Z,8.43
2017-07-30T05:32:16.551Z,8.47
2017-07-30T05:34:42.849Z,6.77
2017-07-30T05:37:09.264Z,9.67
2017-07-30T05:39:35.552Z,7.10
2017-07-30T05:42:01.831Z,8.97
2017-07-30T05:44:28.133Z,6.53
2017-07-30T05:46:55.355Z,4.87
2017-07-30T05:49:21.743Z,6.67
2017-07-30T05:51:48.028Z,6.23
2017-07-30T05:54:15.123Z,5.80
2017-07-30T05:56:41.436Z,7.30
2017-07-30T05:59:07.860Z,5.27
2017-07-30T06:01:34.167Z,7.60
2017-07-30T06:04:01.224Z,6.73
2017-07-30T06:06:28.285Z,5.30
2017-07-30T06:08:54.586Z,6.13
2017-07-30T06:11:21.643Z,3.63
2017-07-30T06:13:48.687Z,4.20
2017-07-30T06:16:15.893Z,6.93
2017-07-30T06:18:42.214Z,4.80
2017-07-30T06:21:08.507Z,5.60
2017-07-30T06:23:35.608Z,4.80
2017-07-30T06:26:01.917Z,5.77
2017-07-30T06:28:28.200Z,5.80
2017-07-30T06:30:54.541Z,8.33
2017-07-30T06:33:21.891Z,4.20
2017-07-30T06:35:48.875Z,6.83
2017-07-30T06:38:15.200Z,5.83
2017-07-30T06:40:41.504Z,6.30
2017-07-30T06:43:08.551Z,5.10
2017-07-30T06:45:35.584Z,5.50
2017-07-30T06:48:02.655Z,4.33
2017-07-30T06:50:28.968Z,5.97
2017-07-30T06:52:56.032Z,5.17
2017-07-30T06:55:23.096Z,3.80
2017-07-30T06:57:49.562Z,6.03
2017-07-30T07:00:15.891Z,5.77
2017-07-30T07:02:42.224Z,4.97
2017-07-30T07:05:08.508Z,6.00
2017-07-30T07:07:34.824Z,5.93
2017-07-30T07:10:01.859Z,7.03
2017-07-30T07:12:28.937Z,5.05
2017-07-30T07:14:55.259Z,2.78
2017-07-30T07:17:21.611Z,2.00
2017-07-30T07:19:47.937Z,4.28
2017-07-30T07:22:14.287Z,3.75
2017-07-30T07:24:40.605Z,3.87
2017-07-30T07:27:06.984Z,2.83
2017-07-30T07:29:33.357Z,2.87
2017-07-30T07:31:59.645Z,3.97
2017-07-30T07:34:26.052Z,1.98
2017-07-30T07:36:52.525Z,1.55
2017-07-30T07:39:18.823Z,3.75
2017-07-30T07:41:45.100Z,2.03
2017-07-30T07:44:11.395Z,1.73
2017-07-30T07:46:37.673Z,1.83
2017-07-30T07:49:03.981Z,2.08
2017-07-30T07:51:30.299Z,2.85
2017-07-30T07:53:57.383Z,2.97
2017-07-30T07:56:23.688Z,1.67
2017-07-30T07:58:49.998Z,3.00
2017-07-30T08:01:17.071Z,3.80
2017-07-30T08:03:43.536Z,3.17
2017-07-30T08:06:09.848Z,1.40
2017-07-30T08:08:36.148Z,1.55
2017-07-30T08:11:02.583Z,3.00
2017-07-30T08:13:29.664Z,1.60
2017-07-30T08:15:56.009Z,2.53
2017-07-30T08:18:22.315Z,1.87
2017-07-30T08:20:48.720Z,2.45
2017-07-30T08:23:15.037Z,3.85
2017-07-30T08:25:42.127Z,2.20
2017-07-30T08:28:08.422Z,4.35
2017-07-30T08:30:34.768Z,2.28
2017-07-30T08:33:01.098Z,4.25
2017-07-30T08:35:27.380Z,2.78
2017-07-30T08:37:53.667Z,2.25
2017-07-30T08:40:19.964Z,5.62
2017-07-30T08:42:47.036Z,3.53
2017-07-30T08:45:13.335Z,2.75
2017-07-30T08:47:39.669Z,2.03
2017-07-30T08:50:06.180Z,2.15
2017-07-30T08:52:32.527Z,2.60
2017-07-30T08:54:58.825Z,3.53
2017-07-30T08:57:25.176Z,1.90
2017-07-30T08:59:51.468Z,1.70
2017-07-30T09:02:17.796Z,3.37
2017-07-30T09:04:44.129Z,1.65
2017-07-30T09:07:10.415Z,2.62
2017-07-30T09:09:36.756Z,7.55
2017-07-30T09:12:03.825Z,1.40
2017-07-30T09:14:30.088Z,1.75
2017-07-30T09:16:56.364Z,1.30
2017-07-30T09:19:23.455Z,4.62
2017-07-30T09:21:49.781Z,10.23
2017-07-30T09:24:16.134Z,4.40
2017-07-30T09:26:42.445Z,2.10
2017-07-30T09:29:08.837Z,7.55
2017-07-30T09:31:36.031Z,2.22
2017-07-30T09:34:02.307Z,1.20
2017-07-30T09:36:29.393Z,1.30
2017-07-30T09:38:55.702Z,2.45
2017-07-30T09:41:22.040Z,3.50
2017-07-30T09:43:48.362Z,1.58
2017-07-30T09:46:14.648Z,11.32
2017-07-30T09:48:40.973Z,5.60
2017-07-30T09:51:07.285Z,1.45
2017-07-30T09:53:33.665Z,2.50
2017-07-30T09:56:00.717Z,1.40
2017-07-30T09:58:27.764Z,2.05
2017-07-30T10:00:54.824Z,2.95
2017-07-30T10:03:21.180Z,2.50
2017-07-30T10:05:47.918Z,3.20
2017-07-30T10:08:14.225Z,1.70
2017-07-30T10:10:40.549Z,2.13
2017-07-30T10:13:07.640Z,3.40
2017-07-30T10:15:33.927Z,3.90
2017-07-30T10:18:00.965Z,2.90
2017-07-30T10:20:28.065Z,3.70
2017-07-30T10:22:54.394Z,6.93
2017-07-30T10:25:20.709Z,4.80
2017-07-30T10:27:47.012Z,3.83
2017-07-30T10:30:14.061Z,2.30
2017-07-30T10:32:41.089Z,4.83
2017-07-30T10:35:08.212Z,2.60
2017-07-30T10:37:34.522Z,2.63
2017-07-30T10:40:00.846Z,2.23
2017-07-30T10:42:27.352Z,4.13
2017-07-30T10:44:53.912Z,4.10
2017-07-30T10:47:20.188Z,3.00
2017-07-30T10:49:46.556Z,2.17
2017-07-30T10:52:12.860Z,4.43
2017-07-30T10:54:39.934Z,3.03
2017-07-30T10:57:06.239Z,4.40
2017-07-30T10:59:33.322Z,8.10
2017-07-30T11:01:59.607Z,1.87
2017-07-30T11:04:25.921Z,3.70
2017-07-30T11:06:52.199Z,3.90
2017-07-30T11:09:18.508Z,2.00
2017-07-30T11:11:45.554Z,2.27
2017-07-30T11:14:12.620Z,5.37
2017-07-30T11:16:38.956Z,2.27
2017-07-30T11:19:06.025Z,5.63
2017-07-30T11:21:32.384Z,2.27
2017-07-30T11:23:58.696Z,3.87
2017-07-30T11:26:25.008Z,8.10
2017-07-30T11:28:51.408Z,4.93
2017-07-30T11:31:18.466Z,5.53
2017-07-30T11:33:44.785Z,3.50
2017-07-30T11:36:11.861Z,4.67
2017-07-30T11:38:38.175Z,10.47
2017-07-30T11:41:04.512Z,3.77
2017-07-30T11:43:30.823Z,1.80
2017-07-30T11:45:57.887Z,3.97
2017-07-30T11:48:24.203Z,3.43
2017-07-30T11:50:51.292Z,3.70
2017-07-30T11:53:17.640Z,3.57
2017-07-30T11:55:43.924Z,3.50
2017-07-30T11:58:10.355Z,8.33
2017-07-30T12:00:36.649Z,2.53
2017-07-30T12:03:02.940Z,4.93
2017-07-30T12:05:29.247Z,3.43
2017-07-30T12:07:55.549Z,3.53
2017-07-30T12:10:21.871Z,5.77
2017-07-30T12:12:48.219Z,1.77
2017-07-30T12:15:14.532Z,2.20
2017-07-30T12:17:40.845Z,2.77
2017-07-30T12:20:07.168Z,2.53
2017-07-30T12:22:33.515Z,2.27
2017-07-30T12:24:59.869Z,1.90
2017-07-30T12:27:26.907Z,3.43
2017-07-30T12:29:53.965Z,4.90
2017-07-30T12:32:21.058Z,4.93
2017-07-30T12:34:47.400Z,2.73
2017-07-30T12:37:13.721Z,3.00
2017-07-30T12:39:40.168Z,3.20
2017-07-30T12:42:07.247Z,4.77
2017-07-30T12:44:34.319Z,2.30
2017-07-30T12:47:00.606Z,3.23
2017-07-30T12:49:26.921Z,3.10
2017-07-30T12:51:53.411Z,3.07
2017-07-30T12:54:19.776Z,2.90
2017-07-30T12:56:46.101Z,4.27
2017-07-30T12:59:12.435Z,3.40
2017-07-30T13:01:38.748Z,3.10
2017-07-30T13:04:05.146Z,1.90
2017-07-30T13:06:31.471Z,3.50
2017-07-30T13:08:57.813Z,2.90
2017-07-30T13:11:24.833Z,7.40
2017-07-30T13:13:51.188Z,2.77
2017-07-30T13:16:18.290Z,2.70
2017-07-30T13:18:44.642Z,9.57
2017-07-30T13:21:10.953Z,2.60
2017-07-30T13:23:37.308Z,3.63
2017-07-30T13:26:03.640Z,2.43
2017-07-30T13:28:29.908Z,3.10
2017-07-30T13:30:56.248Z,2.93
2017-07-30T13:33:22.556Z,4.07
2017-07-30T13:35:48.868Z,3.20
2017-07-30T13:38:15.356Z,4.53
2017-07-30T13:40:41.654Z,1.97
2017-07-30T13:43:08.059Z,3.13
2017-07-30T13:45:35.133Z,2.10
2017-07-30T13:48:01.726Z,1.73
2017-07-30T13:50:28.059Z,2.60
2017-07-30T13:52:54.335Z,6.90
2017-07-30T13:55:20.666Z,2.43
2017-07-30T13:57:47.067Z,2.47
2017-07-30T14:00:14.125Z,2.70
2017-07-30T14:02:41.176Z,4.47
2017-07-30T14:05:08.212Z,4.90
2017-07-30T14:07:34.708Z,2.37
2017-07-30T14:10:01.119Z,8.03
2017-07-30T14:12:27.588Z,3.33
2017-07-30T14:14:53.921Z,2.57
2017-07-30T14:17:20.191Z,3.77
2017-07-30T14:19:46.522Z,3.13
2017-07-30T14:22:12.869Z,2.00
2017-07-30T14:24:39.267Z,3.37
2017-07-30T14:27:06.332Z,2.30
2017-07-30T14:29:32.637Z,5.07
2017-07-30T14:31:58.959Z,6.33
2017-07-30T14:34:25.258Z,1.77
2017-07-30T14:36:51.697Z,4.57
2017-07-30T14:39:18.047Z,9.47
2017-07-30T14:41:44.341Z,1.77
2017-07-30T14:44:10.696Z,2.57
2017-07-30T14:46:37.015Z,3.20
2017-07-30T14:49:03.369Z,3.00
2017-07-30T14:51:29.692Z,2.43
2017-07-30T14:53:56.238Z,2.73
2017-07-30T14:56:22.493Z,4.27
2017-07-30T14:58:48.822Z,4.60
2017-07-30T15:01:15.128Z,3.00
2017-07-30T15:03:41.462Z,3.70
2017-07-30T15:06:08.539Z,6.07
2017-07-30T15:08:34.839Z,2.30
2017-07-30T15:11:01.894Z,4.20
2017-07-30T15:13:29.036Z,4.20
2017-07-30T15:15:55.313Z,3.27
2017-07-30T15:18:21.684Z,4.10
2017-07-30T15:20:47.996Z,2.53
2017-07-30T15:23:14.314Z,3.40
2017-07-30T15:25:40.643Z,3.00
2017-07-30T15:28:06.954Z,10.10
2017-07-30T15:30:33.290Z,4.00
2017-07-30T15:32:59.588Z,3.47
2017-07-30T15:35:26.657Z,2.60
2017-07-30T15:37:52.967Z,2.63
2017-07-30T15:40:20.050Z,4.20
2017-07-30T15:42:46.385Z,4.30
2017-07-30T15:45:12.667Z,3.27
2017-07-30T15:47:39.726Z,2.30
2017-07-30T15:50:06.054Z,4.30
2017-07-30T15:52:32.406Z,4.50
2017-07-30T15:54:58.759Z,4.97
2017-07-30T15:57:25.229Z,2.30
2017-07-30T15:59:51.581Z,6.60
2017-07-30T16:02:17.903Z,2.43
2017-07-30T16:04:44.231Z,7.60
2017-07-30T16:07:10.537Z,4.03
2017-07-30T16:09:36.880Z,4.30
2017-07-30T16:12:03.244Z,3.80
2017-07-30T16:14:29.753Z,3.37
2017-07-30T16:16:56.096Z,2.67
2017-07-30T16:19:22.597Z,2.60
2017-07-30T16:21:49.035Z,4.40
2017-07-30T16:24:16.143Z,6.53
2017-07-30T16:26:42.502Z,6.17
2017-07-30T16:29:08.809Z,3.60
2017-07-30T16:31:35.183Z,5.47
2017-07-30T16:34:02.268Z,4.07
2017-07-30T16:36:28.633Z,3.30
2017-07-30T16:38:54.988Z,3.03
2017-07-30T16:41:21.380Z,10.53
2017-07-30T16:43:47.741Z,6.83
2017-07-30T16:46:14.190Z,2.90
2017-07-30T16:48:41.354Z,4.33
2017-07-30T16:51:08.468Z,5.27
2017-07-30T16:53:34.778Z,2.27
2017-07-30T16:56:01.290Z,9.73
2017-07-30T16:58:27.588Z,5.20
2017-07-30T17:00:54.875Z,5.30
2017-07-30T17:03:21.242Z,2.73
2017-07-30T17:05:47.589Z,4.00
2017-07-30T17:08:14.652Z,4.73
2017-07-30T17:10:41.060Z,2.43
2017-07-30T17:13:08.111Z,5.20
2017-07-30T17:15:34.427Z,4.07
2017-07-30T17:18:00.753Z,9.50
2017-07-30T17:20:27.049Z,4.63
2017-07-30T17:22:53.398Z,2.80
2017-07-30T17:25:19.755Z,8.23
2017-07-30T17:27:46.044Z,7.73
2017-07-30T17:30:12.399Z,5.40
2017-07-30T17:32:38.681Z,7.10
2017-07-30T17:35:04.971Z,4.40
2017-07-30T17:37:31.324Z,3.87
2017-07-30T17:39:58.373Z,8.77
2017-07-30T17:42:24.755Z,6.10
2017-07-30T17:44:51.117Z,5.60
2017-07-30T17:47:17.452Z,8.93
2017-07-30T17:49:43.786Z,7.00
2017-07-30T17:52:10.092Z,4.37
2017-07-30T17:54:36.409Z,3.70
2017-07-30T17:57:02.836Z,4.10
2017-07-30T17:59:29.148Z,9.13
2017-07-30T18:01:55.438Z,7.43
2017-07-30T18:04:21.743Z,3.50
2017-07-30T18:06:48.088Z,3.00
2017-07-30T18:09:14.383Z,5.60
2017-07-30T18:11:40.746Z,5.23
2017-07-30T18:14:07.239Z,8.03
2017-07-30T18:16:33.574Z,26.83
2017-07-30T18:18:59.961Z,6.83
2017-07-30T18:21:27.008Z,3.40
2017-07-30T18:23:54.059Z,4.10
2017-07-30T18:26:21.312Z,4.33
2017-07-30T18:28:48.353Z,4.93
2017-07-30T18:31:15.474Z,13.70
2017-07-30T18:33:41.852Z,4.00
2017-07-30T18:36:08.188Z,4.97
2017-07-30T18:38:34.504Z,4.73
2017-07-30T18:41:00.829Z,3.90
2017-07-30T18:43:27.863Z,4.53
2017-07-30T18:45:54.195Z,7.70
2017-07-30T18:48:21.344Z,4.47
2017-07-30T18:50:48.435Z,4.87
2017-07-30T18:53:14.877Z,5.20
2017-07-30T18:55:41.406Z,6.53
2017-07-30T18:58:07.807Z,4.87
2017-07-30T19:00:34.105Z,6.03
2017-07-30T19:03:00.465Z,3.90
2017-07-30T19:05:27.549Z,11.80
2017-07-30T19:07:53.856Z,5.60
2017-07-30T19:10:20.225Z,6.97
2017-07-30T19:12:46.568Z,7.60
2017-07-30T19:15:12.920Z,7.93
2017-07-30T19:17:40.034Z,4.47
2017-07-30T19:20:06.327Z,7.50
2017-07-30T19:22:32.684Z,6.00
2017-07-30T19:24:59.019Z,5.47
2017-07-30T19:27:25.530Z,9.90
2017-07-30T19:29:52.024Z,6.20
2017-07-30T19:32:19.303Z,8.00
2017-07-30T19:34:48.009Z,12.27
2017-07-30T19:37:17.487Z,6.13
2017-07-30T19:39:43.866Z,3.80
2017-07-30T19:42:10.928Z,6.07
2017-07-30T19:44:38.097Z,3.70
2017-07-30T19:47:04.465Z,3.93
2017-07-30T19:49:30.881Z,4.30
2017-07-30T19:52:01.919Z,5.10
2017-07-30T19:54:29.205Z,6.27
2017-07-30T19:56:59.314Z,5.60
2017-07-30T19:59:26.367Z,3.80
2017-07-30T20:01:52.735Z,5.90
2017-07-30T20:04:19.255Z,7.20
2017-07-30T20:06:46.010Z,14.13
2017-07-30T20:09:12.656Z,4.23
2017-07-30T20:11:39.137Z,5.17
2017-07-30T20:14:06.128Z,4.70
2017-07-30T20:16:33.700Z,5.30
2017-07-30T20:19:00.472Z,3.70
2017-07-30T20:21:27.064Z,6.33
2017-07-30T20:23:54.402Z,3.43
2017-07-30T20:26:21.978Z,5.43
2017-07-30T20:28:49.792Z,5.13
2017-07-30T20:31:17.223Z,3.90
2017-07-30T20:33:44.835Z,6.62
2017-07-30T20:36:11.215Z,4.43
2017-07-30T20:38:40.023Z,5.97
2017-07-30T20:41:08.437Z,4.93
2017-07-30T20:43:34.853Z,3.70
2017-07-30T20:46:01.156Z,9.10
2017-07-30T20:48:27.501Z,7.50
2017-07-30T20:50:53.850Z,5.00
2017-07-30T20:53:20.125Z,3.90
2017-07-30T20:55:47.257Z,7.13
2017-07-30T20:58:13.621Z,5.30
2017-07-30T21:00:39.984Z,6.60
2017-07-30T21:03:06.280Z,4.90
2017-07-30T21:05:33.446Z,5.90
2017-07-30T21:07:59.812Z,4.50
2017-07-30T21:10:26.324Z,11.90
2017-07-30T21:12:52.623Z,5.80
2017-07-30T21:15:19.738Z,7.47
2017-07-30T21:17:46.120Z,7.37
2017-07-30T21:20:12.465Z,8.97
2017-07-30T21:22:38.806Z,7.63
2017-07-30T21:25:05.258Z,5.33
2017-07-30T21:27:31.594Z,5.83
2017-07-30T21:29:57.966Z,7.10
2017-07-30T21:32:24.378Z,5.10
2017-07-30T21:34:51.413Z,3.70
2017-07-30T21:37:18.546Z,5.30
2017-07-30T21:39:45.029Z,9.10
2017-07-30T21:42:11.371Z,4.50
2017-07-30T21:44:37.748Z,4.10
2017-07-30T21:47:04.070Z,4.33
2017-07-30T21:49:30.447Z,3.80
2017-07-30T21:51:57.628Z,5.73
2017-07-30T21:54:24.077Z,5.10
2017-07-30T21:56:50.491Z,8.50
2017-07-30T21:59:16.920Z,8.73
2017-07-30T22:01:43.493Z,4.47
2017-07-30T22:04:09.928Z,7.30
2017-07-30T22:06:36.283Z,5.43
2017-07-30T22:09:03.311Z,5.60
2017-07-30T22:11:29.703Z,9.63
2017-07-30T22:13:56.003Z,4.57
2017-07-30T22:16:22.292Z,5.20
2017-07-30T22:18:48.591Z,5.53
2017-07-30T22:21:14.992Z,7.67
2017-07-30T22:23:42.024Z,5.83
2017-07-30T22:26:09.049Z,9.20
2017-07-30T22:28:35.363Z,6.00
2017-07-30T22:31:01.682Z,5.53
2017-07-30T22:33:28.006Z,5.57
2017-07-30T22:35:54.520Z,4.53
2017-07-30T22:38:20.947Z,10.20
2017-07-30T22:40:47.225Z,3.67
2017-07-30T22:43:13.531Z,7.00
2017-07-30T22:45:39.949Z,4.20
2017-07-30T22:48:06.264Z,3.60
2017-07-30T22:50:33.436Z,7.07
2017-07-30T22:52:59.859Z,5.20
2017-07-30T22:55:26.182Z,4.73
2017-07-30T22:57:53.227Z,6.80
2017-07-30T23:00:19.567Z,6.23
2017-07-30T23:02:45.879Z,3.50
2017-07-30T23:05:12.919Z,5.50
2017-07-30T23:07:39.990Z,4.53
2017-07-30T23:10:06.293Z,4.30
2017-07-30T23:12:33.300Z,5.47
2017-07-30T23:14:59.606Z,4.90
2017-07-30T23:17:25.923Z,11.73
2017-07-30T23:19:52.220Z,8.13
2017-07-30T23:22:18.537Z,4.97
2017-07-30T23:24:44.851Z,5.20
2017-07-30T23:27:11.161Z,7.60
2017-07-30T23:29:37.435Z,6.07
2017-07-30T23:32:04.463Z,4.33
2017-07-30T23:34:30.773Z,4.60
2017-07-30T23:36:57.063Z,4.70
2017-07-30T23:39:24.091Z,9.20
2017-07-30T23:41:50.412Z,4.97
2017-07-30T23:44:16.688Z,4.40
2017-07-30T23:46:43.017Z,5.80
2017-07-30T23:49:09.300Z,4.30
2017-07-30T23:51:35.591Z,7.33
2017-07-30T23:54:01.875Z,4.33
2017-07-30T23:56:28.912Z,4.40
2017-07-30T23:58:55.975Z,5.03
